Time;durP1;ratioP1;P1;durP2;ratioP2;P2;SDS_P1;SDS_P2;PMS_P1;PMS_P2;Temp;Humidity;BMP_temperature;BMP_pressure;BME280_temperature;BME280_humidity;BME280_pressure;Samples;Min_cycle;Max_cycle;Signal;HPM_P1;HPM_P2
2022/08/21 00:00:26;;;;;;;9.63;5.72;;;;;;;16.05;100.00;101671.44;5003505;28;20053;-78
2022/08/21 00:02:59;;;;;;;8.85;5.63;;;;;;;16.02;100.00;101663.53;4998255;28;20561;-77
2022/08/21 00:05:30;;;;;;;8.07;5.07;;;;;;;15.99;100.00;101664.41;4949331;28;20041;-77
2022/08/21 00:07:59;;;;;;;7.45;5.07;;;;;;;15.95;100.00;101663.56;4992920;28;20045;-77
2022/08/21 00:10:31;;;;;;;6.32;5.10;;;;;;;15.93;100.00;101661.78;4959067;28;20155;-77
2022/08/21 00:13:04;;;;;;;10.35;5.82;;;;;;;15.91;100.00;101668.88;4942544;28;20046;-77
2022/08/21 00:15:35;;;;;;;8.00;5.43;;;;;;;15.89;100.00;101668.03;4996401;28;20336;-77
2022/08/21 00:18:07;;;;;;;10.05;5.63;;;;;;;15.87;100.00;101669.81;5005426;28;20061;-78
2022/08/21 00:20:36;;;;;;;10.23;5.57;;;;;;;15.83;100.00;101660.97;4984334;28;20041;-77
2022/08/21 00:23:05;;;;;;;9.48;5.03;;;;;;;15.81;100.00;101665.41;4978159;28;20057;-77
2022/08/21 00:25:34;;;;;;;10.80;5.38;;;;;;;15.79;100.00;101661.88;4966758;28;20766;-77
2022/08/21 00:28:04;;;;;;;11.18;5.80;;;;;;;15.76;100.00;101657.47;4976559;28;20073;-77
2022/08/21 00:30:33;;;;;;;9.63;5.55;;;;;;;15.74;100.00;101663.66;5001699;28;20069;-77
2022/08/21 00:33:03;;;;;;;9.80;5.05;;;;;;;15.71;100.00;101655.69;5004170;28;20042;-77
2022/08/21 00:35:37;;;;;;;9.10;5.20;;;;;;;15.69;100.00;101662.75;4966011;28;20065;-77
2022/08/21 00:38:07;;;;;;;8.40;5.55;;;;;;;15.66;100.00;101655.69;4979582;28;20045;-78
2022/08/21 00:40:48;;;;;;;7.95;6.05;;;;;;;15.65;100.00;101656.63;4914254;28;20053;-77
2022/08/21 00:43:21;;;;;;;10.10;5.85;;;;;;;15.62;100.00;101651.31;5002136;28;20498;-78
2022/08/21 00:45:49;;;;;;;6.63;5.40;;;;;;;15.60;100.00;101650.44;4991883;28;20054;-77
2022/08/21 00:48:18;;;;;;;9.82;5.78;;;;;;;15.57;100.00;101656.63;4946779;28;20417;-78
2022/08/21 00:51:11;;;;;;;10.83;6.50;;;;;;;15.54;100.00;101647.81;4975800;28;20042;-77
2022/08/21 00:53:42;;;;;;;11.95;5.20;;;;;;;15.53;100.00;101646.03;5003649;28;20046;-77
2022/08/21 00:56:15;;;;;;;6.32;5.70;;;;;;;15.49;100.00;101650.47;4953296;28;20061;-78
2022/08/21 00:58:45;;;;;;;13.25;6.75;;;;;;;15.47;100.00;101641.63;4992052;28;20530;-77
2022/08/21 01:01:15;;;;;;;7.47;5.32;;;;;;;15.46;100.00;101653.13;4979401;28;20508;-77
2022/08/21 01:03:47;;;;;;;8.50;5.97;;;;;;;15.44;100.00;101648.72;4971802;28;20030;-77
2022/08/21 01:06:17;;;;;;;8.55;5.97;;;;;;;15.41;100.00;101652.28;4940013;28;20069;-78
2022/08/21 01:08:48;;;;;;;9.23;5.88;;;;;;;15.39;100.00;101651.41;4968750;28;20046;-77
2022/08/21 01:11:17;;;;;;;9.88;5.95;;;;;;;15.37;100.00;101651.41;4958194;28;20043;-77
2022/08/21 01:13:48;;;;;;;7.13;5.50;;;;;;;15.34;100.00;101664.69;4982597;28;20046;-78
2022/08/21 01:16:20;;;;;;;7.63;5.80;;;;;;;15.32;100.00;101662.94;4994915;28;20050;-78
2022/08/21 01:18:50;;;;;;;7.88;5.50;;;;;;;15.29;100.00;101663.84;4972425;28;20038;-77
2022/08/21 01:21:22;;;;;;;8.65;5.78;;;;;;;15.26;100.00;101655.88;4961527;28;20042;-78
2022/08/21 01:23:59;;;;;;;7.97;6.53;;;;;;;15.25;100.00;101661.19;4985563;28;20035;-78
2022/08/21 01:26:34;;;;;;;11.50;6.63;;;;;;;15.22;100.00;101667.41;5002392;28;20612;-78
2022/08/21 01:29:22;;;;;;;8.40;5.75;;;;;;;15.20;100.00;101664.75;4936501;28;20051;-78
2022/08/21 01:31:51;;;;;;;13.65;6.30;;;;;;;15.18;100.00;101661.22;4959172;28;20057;-78
2022/08/21 01:34:22;;;;;;;12.52;5.90;;;;;;;15.16;100.00;101665.66;4982353;28;20054;-78
2022/08/21 01:36:51;;;;;;;10.45;6.13;;;;;;;15.15;100.00;101663.88;4997843;28;20137;-78
2022/08/21 01:39:19;;;;;;;11.40;7.05;;;;;;;15.13;100.00;101662.13;4974875;28;20403;-79
2022/08/21 01:41:47;;;;;;;10.65;6.40;;;;;;;15.11;100.00;101647.97;4951939;28;20140;-79
2022/08/21 01:44:20;;;;;;;13.43;7.53;;;;;;;15.09;100.00;101655.06;4936053;28;20404;-78
2022/08/21 01:46:49;;;;;;;10.43;7.20;;;;;;;15.07;100.00;101652.41;5004285;28;20037;-78
2022/08/21 01:49:18;;;;;;;9.75;6.25;;;;;;;15.07;100.00;101657.69;4965086;28;20069;-78
2022/08/21 01:51:47;;;;;;;9.27;6.00;;;;;;;15.06;100.00;101652.41;4970693;28;20038;-78
2022/08/21 01:54:16;;;;;;;8.85;6.65;;;;;;;15.05;100.00;101645.31;4984828;28;20037;-77
2022/08/21 01:56:49;;;;;;;10.20;6.57;;;;;;;15.04;100.00;101636.47;4987753;28;20056;-78
2022/08/21 01:59:19;;;;;;;13.43;6.38;;;;;;;15.00;100.00;101635.59;4965276;28;20042;-78
2022/08/21 02:01:48;;;;;;;9.82;6.72;;;;;;;15.01;100.00;101640.03;4985864;28;20387;-78
2022/08/21 02:04:16;;;;;;;8.77;6.22;;;;;;;15.01;100.00;101644.47;4954030;28;20034;-79
2022/08/21 02:06:45;;;;;;;9.00;5.97;;;;;;;14.98;100.00;101642.66;4968821;28;20054;-77
2022/08/21 02:09:14;;;;;;;9.40;5.78;;;;;;;14.96;100.00;101639.13;4984835;28;20057;-77
2022/08/21 02:11:44;;;;;;;7.70;5.40;;;;;;;14.95;100.00;101641.78;4973465;28;20058;-79
2022/08/21 02:14:16;;;;;;;11.40;5.65;;;;;;;14.91;100.00;101635.59;4957281;28;20412;-79
2022/08/21 02:17:04;;;;;;;9.80;5.25;;;;;;;14.89;100.00;101632.06;4977477;28;20134;-77
2022/08/21 02:19:38;;;;;;;9.85;5.43;;;;;;;14.89;100.00;101625.88;4958693;28;20033;-78
2022/08/21 02:22:09;;;;;;;9.90;5.63;;;;;;;14.88;100.00;101617.06;4961545;28;20054;-77
2022/08/21 02:24:39;;;;;;;8.75;5.13;;;;;;;14.85;100.00;101622.34;4967841;28;20039;-77
2022/08/21 02:27:24;;;;;;;9.35;5.28;;;;;;;14.84;100.00;101623.25;4986235;28;20053;-77
2022/08/21 02:29:57;;;;;;;8.32;5.18;;;;;;;14.82;100.00;101619.72;4950647;28;20046;-77
2022/08/21 02:32:27;;;;;;;8.85;5.43;;;;;;;14.80;100.00;101625.03;4985331;28;20064;-77
2022/08/21 02:34:56;;;;;;;11.15;5.53;;;;;;;14.80;100.00;101616.16;4990900;28;20618;-78
2022/08/21 02:37:24;;;;;;;11.43;5.70;;;;;;;14.78;100.00;101618.84;4965120;28;20077;-77
2022/08/21 02:39:53;;;;;;;10.50;5.90;;;;;;;14.76;100.00;101617.06;4976980;28;20551;-77
2022/08/21 02:42:21;;;;;;;11.07;5.28;;;;;;;14.76;100.00;101614.41;4987283;28;20042;-78
2022/08/21 02:44:50;;;;;;;12.32;5.57;;;;;;;14.74;100.00;101616.19;4919711;28;22618;-79
2022/08/21 02:47:18;;;;;;;6.45;5.30;;;;;;;14.72;100.00;101613.53;4956541;28;20062;-77
2022/08/21 02:49:47;;;;;;;9.73;4.97;;;;;;;14.71;100.00;101617.09;4970387;28;20050;-77
2022/08/21 02:52:16;;;;;;;8.13;5.65;;;;;;;14.70;100.00;101614.44;4942453;28;20049;-77
2022/08/21 02:54:44;;;;;;;16.83;7.03;;;;;;;14.68;100.00;101610.91;4980065;28;20063;-79
2022/08/21 02:57:13;;;;;;;11.00;5.68;;;;;;;14.65;100.00;101601.19;4948460;28;20083;-78
2022/08/21 02:59:42;;;;;;;8.95;5.47;;;;;;;14.64;100.00;101602.06;4991486;28;20045;-78
2022/08/21 03:02:11;;;;;;;8.55;5.60;;;;;;;14.64;100.00;101595.88;4932739;28;20048;-77
2022/08/21 03:04:39;;;;;;;13.68;5.85;;;;;;;14.62;100.00;101590.56;4968948;28;20042;-78
2022/08/21 03:07:15;;;;;;;14.15;5.70;;;;;;;14.60;100.00;101587.03;4944141;28;20050;-77
2022/08/21 03:09:44;;;;;;;7.80;5.55;;;;;;;14.59;100.00;101593.22;4977700;28;20034;-78
2022/08/21 03:12:24;;;;;;;13.65;6.03;;;;;;;14.58;100.00;101591.47;4942136;28;20042;-78
2022/08/21 03:14:57;;;;;;;10.02;5.68;;;;;;;14.55;100.00;101592.31;4970315;28;20047;-77
2022/08/21 03:17:26;;;;;;;8.93;6.13;;;;;;;14.54;100.00;101582.59;4949002;28;20057;-78
2022/08/21 03:19:58;;;;;;;9.15;5.30;;;;;;;14.52;100.00;101579.06;4964529;28;20042;-78
2022/08/21 03:22:27;;;;;;;9.32;5.32;;;;;;;14.51;100.00;101589.66;4970886;28;20371;-78
2022/08/21 03:24:59;;;;;;;10.75;5.60;;;;;;;14.50;100.00;101582.59;4929961;28;20915;-77
2022/08/21 03:27:30;;;;;;;11.00;5.38;;;;;;;14.48;100.00;101576.41;4924878;29;20117;-77
2022/08/21 03:30:04;;;;;;;8.52;5.10;;;;;;;14.47;100.00;101574.66;4974916;28;20057;-77
2022/08/21 03:32:33;;;;;;;10.48;4.80;;;;;;;14.46;100.00;101571.13;4918050;28;20407;-77
2022/08/21 03:35:03;;;;;;;9.27;5.47;;;;;;;14.44;100.00;101575.53;4969568;28;20050;-77
2022/08/21 03:37:32;;;;;;;10.00;5.28;;;;;;;14.42;100.00;101567.59;5004549;28;20050;-77
2022/08/21 03:40:05;;;;;;;8.45;4.68;;;;;;;14.41;100.00;101571.13;4978322;28;20560;-80
2022/08/21 03:42:34;;;;;;;17.98;5.90;;;;;;;14.40;100.00;101569.38;4989887;28;20042;-78
2022/08/21 03:45:04;;;;;;;13.43;5.53;;;;;;;14.38;100.00;101563.16;4963033;28;20061;-78
2022/08/21 03:47:33;;;;;;;6.65;5.03;;;;;;;14.37;100.00;101569.34;4978600;28;20049;-79
2022/08/21 03:50:04;;;;;;;8.32;5.53;;;;;;;14.37;100.00;101572.00;4966516;28;20046;-78
2022/08/21 03:52:33;;;;;;;7.95;5.00;;;;;;;14.36;100.00;101566.69;4987619;28;20045;-78
2022/08/21 03:55:03;;;;;;;9.55;5.13;;;;;;;14.35;100.00;101563.19;4948343;28;20228;-77
2022/08/21 03:57:32;;;;;;;13.25;6.07;;;;;;;14.34;100.00;101565.81;4963228;28;20050;-78
2022/08/21 04:00:04;;;;;;;9.13;6.55;;;;;;;14.31;100.00;101558.75;4970145;28;20038;-78
2022/08/21 04:02:32;;;;;;;11.52;6.35;;;;;;;14.29;100.00;101559.63;4952290;28;20454;-77
2022/08/21 04:05:03;;;;;;;7.57;5.20;;;;;;;14.28;100.00;101565.84;4970208;28;20046;-78
2022/08/21 04:07:31;;;;;;;10.20;5.35;;;;;;;14.28;100.00;101560.53;4987960;28;20046;-78
2022/08/21 04:10:00;;;;;;;8.27;5.60;;;;;;;14.26;100.00;101567.59;5007553;28;20034;-78
2022/08/21 04:12:28;;;;;;;10.95;6.30;;;;;;;14.23;100.00;101563.16;4981719;28;20242;-77
2022/08/21 04:14:59;;;;;;;11.07;6.18;;;;;;;14.22;100.00;101566.72;5003818;28;20058;-79
2022/08/21 04:17:27;;;;;;;9.73;5.80;;;;;;;14.21;100.00;101565.84;4988710;28;20448;-77
2022/08/21 04:19:56;;;;;;;13.18;6.30;;;;;;;14.20;100.00;101564.06;4962029;28;20499;-78
2022/08/21 04:22:24;;;;;;;11.98;6.97;;;;;;;14.21;100.00;101562.28;4948059;28;20042;-77
2022/08/21 04:24:56;;;;;;;12.80;6.40;;;;;;;14.20;100.00;101564.06;4979496;28;20054;-77
2022/08/21 04:27:26;;;;;;;12.43;7.13;;;;;;;14.20;100.00;101561.41;4960042;28;20360;-78
2022/08/21 04:29:55;;;;;;;10.85;6.43;;;;;;;14.20;100.00;101565.84;5007927;28;20045;-80
2022/08/21 04:32:24;;;;;;;10.75;6.07;;;;;;;14.19;100.00;101559.63;4956398;28;20050;-78
2022/08/21 04:35:01;;;;;;;8.95;6.18;;;;;;;14.21;100.00;101565.84;4922786;28;20057;-78
2022/08/21 04:37:31;;;;;;;9.93;6.13;;;;;;;14.22;100.00;101569.38;4963373;28;20054;-78
2022/08/21 04:40:00;;;;;;;8.88;6.22;;;;;;;14.24;100.00;101572.91;4955931;28;20034;-78
2022/08/21 04:42:29;;;;;;;13.55;7.18;;;;;;;14.24;100.00;101573.78;4964307;28;20058;-79
2022/08/21 04:44:57;;;;;;;16.17;7.35;;;;;;;14.26;100.00;101567.59;4989487;28;20050;-77
2022/08/21 04:47:27;;;;;;;11.60;7.13;;;;;;;14.26;100.00;101571.13;4951157;28;20248;-79
2022/08/21 04:50:15;;;;;;;11.90;6.78;;;;;;;14.28;100.00;101568.50;4949919;28;20681;-78
2022/08/21 04:53:11;;;;;;;10.55;6.88;;;;;;;14.30;100.00;101572.88;4977066;28;20065;-80
2022/08/21 04:55:41;;;;;;;10.75;6.15;;;;;;;14.31;100.00;101566.72;4997308;28;20398;-77
2022/08/21 04:58:12;;;;;;;13.02;6.72;;;;;;;14.32;100.00;101573.78;4969766;28;20043;-80
2022/08/21 05:00:41;;;;;;;13.15;5.93;;;;;;;14.36;100.00;101580.84;4986883;28;20047;-77
2022/08/21 05:03:12;;;;;;;9.55;6.18;;;;;;;14.39;100.00;101572.00;4957134;28;20039;-77
2022/08/21 05:05:40;;;;;;;;;;;;;;;14.42;100.00;101574.63;4989310;28;20050;-77
2022/08/21 05:08:12;;;;;;;8.63;5.60;;;;;;;14.46;100.00;101573.78;4952167;28;19927;-78
2022/08/21 05:10:42;;;;;;;12.27;5.72;;;;;;;14.51;100.00;101571.09;4998705;28;20407;-78
2022/08/21 05:13:12;;;;;;;8.93;6.50;;;;;;;14.55;100.00;101578.16;4974280;28;20041;-78
2022/08/21 05:15:41;;;;;;;11.77;6.43;;;;;;;14.58;100.00;101575.56;4987012;28;20054;-78
2022/08/21 05:18:13;;;;;;;11.75;6.03;;;;;;;14.62;100.00;101572.00;4999148;28;20331;-78
2022/08/21 05:20:42;;;;;;;6.65;4.60;;;;;;;14.65;100.00;101564.06;4973253;28;20049;-77
2022/08/21 05:23:13;;;;;;;10.15;6.03;;;;;;;14.72;100.00;101572.88;4910780;28;20050;-79
2022/08/21 05:25:43;;;;;;;5.70;4.88;;;;;;;14.77;100.00;101569.31;4981688;28;20049;-78
2022/08/21 05:28:14;;;;;;;9.93;5.32;;;;;;;14.80;100.00;101571.97;4946087;28;20278;-78
2022/08/21 05:30:43;;;;;;;9.68;5.18;;;;;;;14.85;100.00;101565.75;4972677;28;20407;-78
2022/08/21 05:33:11;;;;;;;12.60;5.85;;;;;;;14.90;100.00;101570.16;4956173;28;20046;-79
2022/08/21 05:35:40;;;;;;;9.63;5.38;;;;;;;14.97;100.00;101568.34;4952956;28;20523;-77
2022/08/21 05:38:08;;;;;;;12.70;6.50;;;;;;;15.01;100.00;101571.00;4960015;28;20046;-78
2022/08/21 05:40:46;;;;;;;9.38;6.30;;;;;;;15.10;100.00;101579.81;5001332;28;20041;-77
2022/08/21 05:43:15;;;;;;;9.60;6.03;;;;;;;15.14;100.00;101582.47;4958211;28;20419;-78
2022/08/21 05:45:43;;;;;;;8.45;4.90;;;;;;;15.21;100.00;101576.22;4971399;28;20051;-77
2022/08/21 05:48:20;;;;;;;9.50;4.85;;;;;;;15.26;100.00;101578.00;4956431;28;20039;-77
2022/08/21 05:50:51;;;;;;;7.90;5.32;;;;;;;15.31;100.00;101570.88;4975335;28;20041;-77
2022/08/21 05:53:24;;;;;;;7.55;5.13;;;;;;;15.37;100.00;101574.41;4899777;28;22517;-77
2022/08/21 05:55:53;;;;;;;10.20;5.68;;;;;;;15.45;100.00;101569.03;4990824;28;20507;-78
2022/08/21 05:58:25;;;;;;;7.10;5.45;;;;;;;15.52;100.00;101569.88;4958638;28;20909;-77
2022/08/21 06:00:53;;;;;;;9.57;5.05;;;;;;;15.60;100.00;101566.28;4969697;28;20038;-80
2022/08/21 06:03:24;;;;;;;9.27;5.68;;;;;;;15.70;100.00;101572.44;4969466;28;20057;-77
2022/08/21 06:05:54;;;;;;;12.63;4.90;;;;;;;15.84;100.00;101564.41;4960495;28;20054;-78
2022/08/21 06:08:23;;;;;;;10.38;5.43;;;;;;;16.01;100.00;101561.63;4967595;28;20039;-78
2022/08/21 06:10:54;;;;;;;9.60;4.40;;;;;;;16.15;100.00;101572.13;4893099;28;20058;-78
2022/08/21 06:13:23;;;;;;;9.77;5.50;;;;;;;16.26;100.00;101564.06;4984561;28;20061;-78
2022/08/21 06:16:11;;;;;;;9.85;4.78;;;;;;;16.34;100.00;101562.22;4967145;28;20057;-78
2022/08/21 06:18:44;;;;;;;11.90;5.05;;;;;;;16.38;100.00;101567.47;5000854;28;20054;-78
2022/08/21 06:21:13;;;;;;;12.02;4.95;;;;;;;16.43;100.00;101570.13;4974145;28;20617;-77
2022/08/21 06:23:42;;;;;;;9.10;5.30;;;;;;;16.48;100.00;101559.41;4962180;28;20046;-77
2022/08/21 06:26:12;;;;;;;12.48;5.13;;;;;;;16.53;100.00;101566.47;4926250;28;20511;-78
2022/08/21 06:28:41;;;;;;;8.80;5.03;;;;;;;16.60;100.00;101575.28;4973335;28;20484;-78
2022/08/21 06:31:13;;;;;;;10.68;5.88;;;;;;;16.69;100.00;101563.63;4961715;28;20041;-78
2022/08/21 06:33:43;;;;;;;8.48;4.70;;;;;;;16.74;100.00;101561.81;4973022;28;20046;-78
2022/08/21 06:36:11;;;;;;;10.55;5.30;;;;;;;16.84;100.00;101565.28;4985090;28;20054;-78
2022/08/21 06:38:45;;;;;;;13.02;5.70;;;;;;;17.00;100.00;101574.84;4983480;28;20042;-78
2022/08/21 06:41:19;;;;;;;7.00;4.55;;;;;;;17.15;100.00;101568.47;4932807;28;20054;-78
2022/08/21 06:43:55;;;;;;;6.68;4.82;;;;;;;17.27;100.00;101573.63;4972688;28;20039;-78
2022/08/21 06:46:26;;;;;;;7.28;4.45;;;;;;;17.36;100.00;101569.97;4979175;28;20249;-78
2022/08/21 06:48:54;;;;;;;10.85;4.28;;;;;;;17.43;100.00;101566.31;4971495;28;20046;-79
2022/08/21 06:51:25;;;;;;;11.52;4.78;;;;;;;17.50;100.00;101567.09;4980686;28;20432;-78
2022/08/21 06:53:54;;;;;;;9.82;4.68;;;;;;;17.59;100.00;101576.75;5000070;28;20518;-79
2022/08/21 06:56:22;;;;;;;12.57;4.45;;;;;;;17.68;100.00;101566.84;4932850;28;20738;-77
2022/08/21 06:58:51;;;;;;;13.00;4.45;;;;;;;17.77;100.00;101567.59;4966893;28;20034;-79
2022/08/21 07:01:24;;;;;;;8.23;4.40;;;;;;;17.85;100.00;101571.09;4964121;28;20081;-77
2022/08/21 07:03:54;;;;;;;14.32;4.63;;;;;;;17.97;100.00;101562.88;4977541;28;20499;-79
2022/08/21 07:06:22;;;;;;;11.07;4.20;;;;;;;18.10;100.00;101569.75;4987650;28;20058;-77
2022/08/21 07:08:50;;;;;;;12.80;4.53;;;;;;;18.19;100.00;101562.53;4963657;28;20030;-79
2022/08/21 07:11:22;;;;;;;8.80;3.67;;;;;;;18.30;100.00;101568.56;4902553;28;20050;-79
2022/08/21 07:13:53;;;;;;;9.32;3.95;;;;;;;18.39;100.00;101572.84;4972020;28;20399;-79
2022/08/21 07:16:23;;;;;;;10.50;4.55;;;;;;;18.47;100.00;101562.94;4961190;28;20061;-78
2022/08/21 07:18:51;;;;;;;13.68;4.15;;;;;;;18.55;100.00;101554.78;4974991;28;20403;-78
2022/08/21 07:21:21;;;;;;;8.95;3.42;;;;;;;18.65;100.00;101554.56;4971031;28;20287;-78
2022/08/21 07:23:53;;;;;;;12.13;3.78;;;;;;;18.73;100.00;101558.88;4979153;28;20600;-79
2022/08/21 07:26:23;;;;;;;8.48;3.70;;;;;;;18.80;100.00;101564.09;4989121;28;20047;-78
2022/08/21 07:28:52;;;;;;;7.10;3.50;;;;;;;18.88;100.00;101571.94;4939587;28;20045;-79
2022/08/21 07:31:23;;;;;;;7.60;3.00;;;;;;;18.94;100.00;101565.59;4962400;28;20286;-78
2022/08/21 07:33:52;;;;;;;8.80;3.40;;;;;;;19.05;100.00;101568.94;4983177;28;20053;-78
2022/08/21 07:36:21;;;;;;;6.90;2.25;;;;;;;19.12;100.00;101565.22;4986122;28;20746;-78
2022/08/21 07:38:49;;;;;;;9.82;2.55;;;;;;;19.19;100.00;101566.88;4988221;28;20038;-78
2022/08/21 07:41:25;;;;;;;8.93;2.40;;;;;;;19.23;100.00;101560.53;4952532;28;20256;-77
2022/08/21 07:43:57;;;;;;;12.05;3.45;;;;;;;19.28;100.00;101564.00;4917457;28;20038;-79
2022/08/21 07:46:27;;;;;;;10.45;3.80;;;;;;;19.32;100.00;101561.25;4948260;28;20047;-79
2022/08/21 07:48:56;;;;;;;;;;;;;;;19.35;100.00;101559.38;4941706;28;20292;-80
2022/08/21 07:51:27;;;;;;;8.05;2.30;;;;;;;19.40;100.00;101552.16;4973972;28;19925;-78
2022/08/21 07:53:59;;;;;;;5.18;2.05;;;;;;;19.46;100.00;101559.16;4958657;28;20245;-77
2022/08/21 07:56:30;;;;;;;7.75;2.80;;;;;;;19.48;100.00;101554.66;4956403;28;20039;-79
2022/08/21 07:58:58;;;;;;;6.55;2.55;;;;;;;19.53;100.00;101559.88;4905812;28;20352;-78
2022/08/21 08:01:27;;;;;;;6.43;2.20;;;;;;;19.60;100.00;101553.50;4966502;28;20420;-78
2022/08/21 08:03:56;;;;;;;6.88;2.63;;;;;;;19.66;100.00;101554.25;4952678;28;20058;-78
2022/08/21 08:06:25;;;;;;;11.02;2.58;;;;;;;19.77;100.00;101555.81;4964933;28;20054;-78
2022/08/21 08:08:54;;;;;;;8.27;2.60;;;;;;;19.83;100.00;101551.19;4925949;28;20031;-78
2022/08/21 08:11:22;;;;;;;10.43;2.60;;;;;;;19.85;100.00;101557.38;4957012;28;20496;-78
2022/08/21 08:13:52;;;;;;;9.40;3.05;;;;;;;19.94;100.00;101552.72;4935946;28;20340;-79
2022/08/21 08:16:20;;;;;;;7.70;2.10;;;;;;;19.97;100.00;101555.34;4950676;28;20540;-78
2022/08/21 08:18:49;;;;;;;5.40;2.25;;;;;;;20.01;100.00;101559.69;4936196;28;20035;-78
2022/08/21 08:21:20;;;;;;;9.55;2.20;;;;;;;20.03;100.00;101555.16;4947078;28;20039;-78
2022/08/21 08:23:49;;;;;;;7.38;2.22;;;;;;;20.06;100.00;101561.31;4962530;28;20415;-77
2022/08/21 08:26:18;;;;;;;9.27;2.10;;;;;;;20.12;100.00;101557.63;4968202;28;20054;-79
2022/08/21 08:28:47;;;;;;;11.23;2.80;;;;;;;20.18;100.00;101553.91;4934042;28;20503;-78
2022/08/21 08:31:15;;;;;;;11.13;2.58;;;;;;;20.28;100.00;101560.75;4971266;28;20472;-79
2022/08/21 08:33:44;;;;;;;6.50;2.13;;;;;;;20.39;100.00;101556.00;4958665;28;20085;-79
2022/08/21 08:36:15;;;;;;;7.07;2.20;;;;;;;20.49;100.00;101558.44;4953630;28;20041;-79
2022/08/21 08:38:44;;;;;;;4.85;2.00;;;;;;;20.57;100.00;101551.97;4928327;28;20050;-78
2022/08/21 08:41:19;;;;;;;5.90;2.03;;;;;;;20.61;100.00;101551.00;4965675;28;20058;-77
2022/08/21 08:43:59;;;;;;;6.75;2.03;;;;;;;20.71;100.00;101561.47;4960182;28;20073;-79
2022/08/21 08:46:40;;;;;;;;;;;;;;;20.78;100.00;101561.25;4955557;28;20253;-79
2022/08/21 08:49:36;;;;;;;6.40;2.13;;;;;;;20.86;100.00;101553.00;4948242;28;19922;-78
2022/08/21 08:52:08;;;;;;;4.65;1.65;;;;;;;20.93;100.00;101553.72;4948533;28;20398;-78
2022/08/21 08:54:45;;;;;;;9.30;2.38;;;;;;;21.03;100.00;101542.66;4949438;28;20062;-78
2022/08/21 08:57:21;;;;;;;9.07;2.50;;;;;;;21.14;100.00;101541.47;4961119;28;20051;-78
2022/08/21 08:59:53;;;;;;;8.68;2.38;;;;;;;21.21;100.00;101541.25;4959063;28;20047;-78
2022/08/21 09:02:23;;;;;;;5.03;1.83;;;;;;;21.29;100.00;101546.38;4928879;28;20399;-78
2022/08/21 09:04:56;;;;;;;7.10;1.83;;;;;;;21.34;100.00;101544.44;4979324;28;20057;-78
2022/08/21 09:07:34;;;;;;;7.28;2.15;;;;;;;21.41;100.00;101551.34;4933923;28;20046;-78
2022/08/21 09:10:39;;;;;;;7.80;2.30;;;;;;;21.51;100.00;101546.63;4957805;28;20047;-78
2022/08/21 09:13:35;;;;;;;5.40;1.95;;;;;;;21.59;100.00;101554.44;4970507;28;20045;-78
2022/08/21 09:16:16;;;;;;;6.90;2.00;;;;;;;21.61;100.00;101552.56;4928884;28;20043;-78
2022/08/21 09:19:02;;;;;;;5.25;1.85;;;;;;;21.64;100.00;101552.47;4960163;28;20165;-77
2022/08/21 09:21:51;;;;;;;9.68;1.95;;;;;;;21.66;97.56;101553.28;4957067;28;20051;-77
2022/08/21 09:24:47;;;;;;;7.38;2.70;;;;;;;21.69;98.90;101550.50;4972287;28;20046;-78
2022/08/21 09:27:21;;;;;;;8.13;2.10;;;;;;;21.73;99.25;101557.53;4978145;28;20423;-77
2022/08/21 09:29:53;;;;;;;9.02;2.30;;;;;;;21.79;99.08;101551.97;4971721;28;20041;-77
2022/08/21 09:32:22;;;;;;;10.07;1.90;;;;;;;21.88;100.00;101549.94;4961357;28;20054;-77
2022/08/21 09:35:19;;;;;;;6.82;1.98;;;;;;;22.03;98.34;101544.03;4985785;28;20058;-76
2022/08/21 09:37:58;;;;;;;5.53;2.00;;;;;;;22.07;98.11;101540.31;4987035;28;20695;-77
2022/08/21 09:40:38;;;;;;;9.60;2.40;;;;;;;22.09;98.18;101546.50;4952088;28;20030;-78
2022/08/21 09:43:13;;;;;;;10.55;1.88;;;;;;;22.14;98.98;101543.69;4962195;28;20049;-79
2022/08/21 09:45:44;;;;;;;7.72;2.35;;;;;;;22.18;97.32;101539.97;4986101;28;20057;-85
2022/08/21 09:48:18;;;;;;;6.47;2.20;;;;;;;22.22;98.00;101544.28;4972681;28;20049;-83
2022/08/21 09:50:49;;;;;;;9.07;2.13;;;;;;;22.27;97.44;101550.44;4957567;28;20034;-79
2022/08/21 09:53:21;;;;;;;9.30;1.95;;;;;;;22.30;97.35;101555.66;4960276;28;20512;-79
2022/08/21 09:58:46;;;;;;;6.53;1.92;;;;;;;22.45;97.89;101550.72;4991127;28;20447;-76
2022/08/21 10:01:19;;;;;;;5.68;2.20;;;;;;;22.54;98.31;101547.69;4975229;28;20046;-76
2022/08/21 10:04:07;;;;;;;6.00;2.35;;;;;;;22.65;98.04;101541.94;4975196;28;20048;-76
2022/08/21 10:06:36;;;;;;;7.03;2.05;;;;;;;22.74;98.10;101533.53;4967868;28;20042;-77
2022/08/21 10:09:14;;;;;;;8.55;2.60;;;;;;;22.80;96.71;101532.41;4958803;28;20042;-77
2022/08/21 10:12:05;;;;;;;5.53;2.55;;;;;;;22.78;95.34;101535.19;4957748;28;20038;-77
2022/08/21 10:14:51;;;;;;;10.60;3.15;;;;;;;22.85;96.04;101530.44;4986632;28;20161;-77
2022/08/21 10:17:41;;;;;;;9.10;2.20;;;;;;;22.89;95.13;101524.03;4939908;28;20038;-76
2022/08/21 10:20:18;;;;;;;4.88;1.70;;;;;;;22.93;94.78;101531.94;4932538;28;20055;-77
2022/08/21 10:23:14;;;;;;;10.07;2.20;;;;;;;23.03;95.90;101521.72;4957330;28;20816;-77
2022/08/21 10:26:21;;;;;;;8.40;2.83;;;;;;;23.15;94.91;101520.38;4973024;28;20043;-76
2022/08/21 10:29:08;;;;;;;9.70;2.13;;;;;;;23.22;94.68;101523.72;4943059;28;20050;-77
2022/08/21 10:31:49;;;;;;;8.82;2.00;;;;;;;23.28;94.17;101520.78;4959757;28;20056;-76
2022/08/21 10:34:37;;;;;;;13.07;2.25;;;;;;;23.33;94.39;101524.16;4936525;28;20046;-77
2022/08/21 10:37:39;;;;;;;8.05;2.50;;;;;;;23.41;94.34;101521.19;4954384;28;20496;-77
2022/08/21 10:40:19;;;;;;;11.85;2.55;;;;;;;23.50;93.55;101527.06;4974496;28;20054;-76
2022/08/21 10:43:17;;;;;;;8.00;2.47;;;;;;;23.49;91.41;101525.28;4964693;28;20046;-77
2022/08/21 10:45:57;;;;;;;7.68;2.00;;;;;;;23.34;90.92;101531.28;4968372;28;20046;-77
2022/08/21 10:48:29;;;;;;;8.15;2.03;;;;;;;23.20;92.54;101523.78;4947458;28;20053;-76
2022/08/21 10:51:03;;;;;;;4.18;1.90;;;;;;;23.12;92.74;101525.91;4952081;28;20046;-77
2022/08/21 10:53:55;;;;;;;11.27;2.00;;;;;;;23.09;92.33;101510.72;4979115;28;20043;-76
2022/08/21 10:56:30;;;;;;;6.40;1.90;;;;;;;23.26;93.98;101510.06;4966851;28;20053;-77
2022/08/21 10:59:04;;;;;;;7.50;2.15;;;;;;;23.45;94.00;101507.53;4951991;28;20038;-77
2022/08/21 11:01:49;;;;;;;5.30;1.83;;;;;;;23.68;92.60;101506.59;4964402;28;20170;-76
2022/08/21 11:04:38;;;;;;;8.75;2.42;;;;;;;23.87;91.33;101511.25;4932342;28;20046;-77
2022/08/21 11:07:34;;;;;;;6.72;1.65;;;;;;;24.06;91.10;101504.13;4971189;28;20035;-77
2022/08/21 11:10:27;;;;;;;5.47;2.13;;;;;;;24.25;89.41;101508.72;4965740;28;20046;-77
2022/08/21 11:13:01;;;;;;;6.10;1.88;;;;;;;24.38;89.03;101501.84;4989518;28;20034;-77
2022/08/21 11:15:30;;;;;;;10.57;1.80;;;;;;;24.52;89.07;101506.69;4972553;28;20328;-76
2022/08/21 11:18:36;;;;;;;4.38;1.60;;;;;;;24.62;87.24;101516.09;4968603;28;20054;-76
2022/08/21 11:21:15;;;;;;;3.80;1.92;;;;;;;24.59;86.97;101518.03;4934226;28;20057;-76
2022/08/21 11:23:54;;;;;;;4.70;1.80;;;;;;;24.44;85.78;101514.16;4993360;28;20363;-76
2022/08/21 11:27:12;;;;;;;6.72;2.15;;;;;;;24.25;85.63;101523.09;4972571;28;20050;-77
2022/08/21 11:29:54;;;;;;;8.55;2.03;;;;;;;24.07;87.03;101524.75;4956994;28;20292;-77
2022/08/21 11:32:59;;;;;;;6.85;1.65;;;;;;;23.93;86.53;101519.06;4964559;28;20493;-77
2022/08/21 11:35:53;;;;;;;6.38;1.60;;;;;;;24.03;86.32;101519.56;4932298;28;20089;-77
2022/08/21 11:38:34;;;;;;;5.15;1.90;;;;;;;24.22;87.81;101519.66;4993648;28;20053;-77
2022/08/21 11:41:12;;;;;;;7.93;1.92;;;;;;;24.40;86.03;101513.44;4979772;28;20523;-76
2022/08/21 11:43:47;;;;;;;31.40;4.28;;;;;;;24.47;85.27;101514.91;4982221;28;20244;-77
2022/08/21 11:46:37;;;;;;;19.70;3.80;;;;;;;24.64;86.99;101510.63;4980255;28;20519;-76
2022/08/21 11:49:40;;;;;;;9.95;2.35;;;;;;;24.78;85.13;101527.03;4992356;28;20062;-76